Honolulu, HI

1:41 PM HST on November 26, 2014 (GMT -1000)
Kalaeloa (John Rodgers Field) | Change Station
CLOSE
Current Station
Airport
Location: Kalaeloa,
Elevation: 49 ft
Nearby Weather Stations
Active Advisory: High Surf Advisory

Elev 49 ft 21.31 °N, 158.07 °W | Updated 48 minutes ago

Partly Cloudy
Partly Cloudy
80 °F
Feels Like 81 °F
N
10
Wind Variable Wind from ENE
Gusts 20 mph

Today
High -- | Low -- °F
--% Chance of Precip.
Yesterday
High -- | Low -- °F
Precip. -- in
6:49 AM 5:48 PM
Waxing Crescent, 23% visible
Pressure 30.06 in
Visibility 10.0 miles
Clouds Few 4800 ft
Heat Index 81 °F
Dew Point 59 °F
Humidity 48%
Rainfall 0.00 in
Snow Depth Not available.
UV 6 out of 12
Pollen Not available.
Air Quality Not available.
Flu Activity Not available.
METAR PHJR 262253Z 07009G17KT 050V110 10SM FEW048 27/15 A3004 RMK AO2 SLP178 T02670150

More Conditions Fewer Conditions

Pressure 30.06 in
Visibility 10.0 miles
Clouds Few 4800 ft
Heat Index 81 °F
Dew Point 59 °F
Humidity 48%
Rainfall 0.00 in
Snow Depth Not available.
UV 6 out of 12
Pollen Not available.
Air Quality Not available.
Flu Activity Not available.
METAR PHJR 262253Z 07009G17KT 050V110 10SM FEW048 27/15 A3004 RMK AO2 SLP178 T02670150

More Conditions Fewer Conditions

10-Day Weather Forecast

Almanac

Astronomy

Nov. 26, 2014 Rise Set
Actual Time
Civil Twilight
Nautical Twilight
Astronomical Twilight
Moon
Length of Visible Light
Length of Day
Tomorrow will be .
, % of the Moon is Illuminated

Today's Extremes

State Highs State Lows

Community

WunderPhotos

Upload Photos

1,773,921 photos uploaded!

WunderBlogs® & News

Nearby

Air Quality

  Air Quality AQ Index Pollutant
Not available.

Snow Depth

Station Depth Elevation

Earthquake Activity

City Distance Mag. Time & Date
Minimum magnitude displayed is 2.5.

Coastal Water Temperatures

Place Temperature

Nearby Weather Stations